Time;durP1;ratioP1;P1;durP2;ratioP2;P2;SDS_P1;SDS_P2;PMS_P1;PMS_P2;Temp;Humidity;BMP_temperature;BMP_pressure;BME280_temperature;BME280_humidity;BME280_pressure;Samples;Min_cycle;Max_cycle;Signal;HPM_P1;HPM_P2
2021/10/06 00:02:22;;;;;;;6.85;2.40;;;21.10;51.40;;;;;;5011013;28;20029;-62
2021/10/06 00:04:50;;;;;;;7.35;2.15;;;21.20;50.20;;;;;;5011479;28;20022;-59
2021/10/06 00:07:17;;;;;;;6.32;2.40;;;21.30;50.10;;;;;;5010773;28;20030;-58
2021/10/06 00:09:44;;;;;;;9.13;2.35;;;21.40;49.30;;;;;;5006773;28;20503;-60
2021/10/06 00:12:12;;;;;;;8.40;3.15;;;21.40;49.40;;;;;;5010714;28;20030;-59
2021/10/06 00:14:39;;;;;;;3.45;1.85;;;21.50;49.60;;;;;;5011235;28;20384;-58
2021/10/06 00:17:06;;;;;;;5.13;1.90;;;21.50;50.90;;;;;;5010907;28;20147;-64
2021/10/06 00:19:34;;;;;;;6.57;1.85;;;21.60;48.60;;;;;;4988622;28;20044;-63
2021/10/06 00:22:01;;;;;;;6.93;2.28;;;21.60;51.30;;;;;;5010592;28;20109;-64
2021/10/06 00:24:29;;;;;;;8.15;2.35;;;21.60;48.50;;;;;;5010682;28;20018;-62
2021/10/06 00:26:56;;;;;;;4.63;2.20;;;21.80;49.60;;;;;;4993191;28;20030;-64
2021/10/06 00:29:24;;;;;;;5.65;1.80;;;21.80;50.80;;;;;;5006350;28;20022;-62
2021/10/06 00:31:51;;;;;;;6.78;2.30;;;21.90;48.20;;;;;;5009857;28;20542;-57
2021/10/06 00:34:21;;;;;;;5.95;2.70;;;22.00;47.50;;;;;;5010809;28;20037;-53
2021/10/06 00:36:48;;;;;;;6.15;2.50;;;22.00;47.00;;;;;;5011031;28;20428;-61
2021/10/06 00:39:17;;;;;;;7.82;2.38;;;22.00;49.40;;;;;;5006353;28;20115;-62
2021/10/06 00:41:44;;;;;;;3.75;1.92;;;22.10;48.50;;;;;;5012002;28;20018;-63
2021/10/06 00:44:35;;;;;;;4.90;1.95;;;22.00;49.80;;;;;;5012140;28;20487;-63
2021/10/06 00:47:12;;;;;;;9.75;2.15;;;22.10;49.00;;;;;;5012376;28;20062;-65
2021/10/06 00:49:41;;;;;;;6.85;2.15;;;22.20;49.70;;;;;;5012047;28;20484;-66
2021/10/06 00:52:12;;;;;;;8.02;2.40;;;22.20;48.70;;;;;;5012730;28;20030;-68
2021/10/06 00:54:40;;;;;;;5.10;2.17;;;22.20;48.10;;;;;;5011659;28;20038;-64
2021/10/06 00:57:08;;;;;;;6.18;2.75;;;22.20;47.90;;;;;;5011772;28;20029;-57
2021/10/06 00:59:36;;;;;;;6.97;3.13;;;22.40;45.40;;;;;;5011199;28;20041;-56
2021/10/06 01:02:04;;;;;;;6.75;2.78;;;22.60;44.60;;;;;;5011859;28;20026;-61
2021/10/06 01:04:33;;;;;;;9.25;5.03;;;22.70;46.50;;;;;;5011798;28;20506;-57
2021/10/06 01:07:04;;;;;;;9.48;5.03;;;22.90;47.80;;;;;;5011491;28;20041;-60
2021/10/06 01:09:32;;;;;;;9.65;4.03;;;22.70;45.90;;;;;;5012103;28;20161;-57
2021/10/06 01:12:01;;;;;;;12.45;2.85;;;22.60;46.40;;;;;;5010808;28;20036;-58
2021/10/06 01:14:29;;;;;;;11.40;3.85;;;22.60;41.20;;;;;;5011585;28;20022;-57
2021/10/06 01:16:57;;;;;;;8.35;3.10;;;22.80;43.30;;;;;;5011464;28;20030;-58
2021/10/06 01:19:26;;;;;;;6.65;2.97;;;22.90;43.20;;;;;;5011641;28;20036;-58
2021/10/06 01:21:55;;;;;;;8.38;3.17;;;23.00;42.50;;;;;;5003783;28;20041;-64
2021/10/06 01:24:24;;;;;;;6.63;3.13;;;22.90;42.00;;;;;;5007069;28;20026;-57
2021/10/06 01:26:52;;;;;;;5.13;2.85;;;23.00;40.60;;;;;;5010152;28;20097;-57
2021/10/06 01:29:19;;;;;;;10.07;3.33;;;23.10;41.50;;;;;;5010201;28;20079;-59
2021/10/06 01:31:48;;;;;;;6.82;2.17;;;23.20;41.00;;;;;;4989084;28;20369;-56
2021/10/06 01:34:20;;;;;;;7.75;3.10;;;23.20;37.00;;;;;;4992921;28;20428;-60
2021/10/06 01:36:51;;;;;;;10.40;2.97;;;23.20;40.40;;;;;;5009797;28;20028;-55
2021/10/06 01:39:21;;;;;;;7.83;2.40;;;23.30;39.80;;;;;;5010001;28;20025;-62
2021/10/06 01:41:50;;;;;;;13.68;2.83;;;23.30;41.00;;;;;;5004721;28;20026;-58
2021/10/06 01:44:19;;;;;;;5.60;2.03;;;23.50;38.40;;;;;;5009887;28;20067;-59
2021/10/06 01:46:48;;;;;;;6.78;2.20;;;23.50;37.90;;;;;;5009645;28;20037;-60
2021/10/06 01:49:15;;;;;;;8.43;2.47;;;23.60;36.20;;;;;;4976328;28;20030;-58
2021/10/06 01:51:43;;;;;;;9.82;2.50;;;23.70;39.90;;;;;;5004179;28;20090;-62
2021/10/06 01:54:11;;;;;;;6.45;2.50;;;23.70;40.40;;;;;;5005497;28;20056;-56
2021/10/06 01:56:39;;;;;;;6.95;2.15;;;23.70;40.50;;;;;;5009350;28;20057;-60
2021/10/06 01:59:07;;;;;;;8.65;2.00;;;23.70;39.30;;;;;;5009609;28;20113;-62
2021/10/06 02:01:34;;;;;;;5.20;1.77;;;23.80;41.70;;;;;;5004484;28;20044;-59
2021/10/06 02:04:02;;;;;;;6.93;2.53;;;23.70;41.10;;;;;;5009264;28;20357;-59
2021/10/06 02:06:30;;;;;;;8.85;2.45;;;23.70;41.10;;;;;;5009549;28;20352;-57
2021/10/06 02:08:57;;;;;;;5.55;2.15;;;23.80;40.60;;;;;;5009137;28;20041;-59
2021/10/06 02:11:25;;;;;;;7.05;2.47;;;23.70;39.50;;;;;;5004752;28;20057;-59
2021/10/06 02:13:53;;;;;;;6.68;2.42;;;23.70;41.00;;;;;;5009484;28;20484;-61
2021/10/06 02:16:20;;;;;;;6.50;1.95;;;23.70;40.90;;;;;;5010377;28;20033;-59
2021/10/06 02:18:48;;;;;;;10.25;2.53;;;23.80;40.90;;;;;;4997282;28;20060;-60
2021/10/06 02:21:15;;;;;;;5.47;2.35;;;23.50;42.00;;;;;;4991203;28;20042;-56
2021/10/06 02:23:43;;;;;;;7.15;1.90;;;23.40;42.80;;;;;;4989688;28;20030;-58
2021/10/06 02:26:10;;;;;;;9.88;1.77;;;23.20;43.50;;;;;;4991092;28;20038;-56
2021/10/06 02:28:38;;;;;;;6.30;2.28;;;23.30;42.10;;;;;;4990790;28;20050;-60
2021/10/06 02:31:05;;;;;;;7.43;2.17;;;23.30;41.90;;;;;;4991183;28;20552;-56
2021/10/06 02:33:33;;;;;;;8.32;2.80;;;23.30;43.50;;;;;;4991220;28;20030;-66
2021/10/06 02:36:00;;;;;;;7.60;2.92;;;23.30;42.20;;;;;;4990826;28;20495;-62
2021/10/06 02:38:27;;;;;;;8.63;1.98;;;23.40;42.30;;;;;;4990919;28;20026;-64
2021/10/06 02:40:55;;;;;;;6.35;2.13;;;23.30;44.30;;;;;;4990895;28;20030;-61
2021/10/06 02:43:22;;;;;;;7.78;2.40;;;23.30;44.60;;;;;;4990606;28;20091;-66
2021/10/06 02:45:50;;;;;;;7.20;2.40;;;23.40;43.00;;;;;;4989482;28;20044;-61
2021/10/06 02:48:17;;;;;;;9.65;2.33;;;23.40;42.50;;;;;;4990535;28;20194;-62
2021/10/06 02:50:45;;;;;;;5.38;2.00;;;23.50;43.50;;;;;;5074634;28;20377;-64
2021/10/06 02:53:12;;;;;;;7.22;2.40;;;23.50;44.30;;;;;;4990251;28;20050;-61
2021/10/06 02:55:39;;;;;;;7.47;2.65;;;23.60;44.00;;;;;;4990107;28;20026;-63
2021/10/06 02:58:07;;;;;;;7.63;1.55;;;23.60;42.80;;;;;;4990230;28;20046;-62
2021/10/06 03:00:34;;;;;;;6.18;2.00;;;23.80;40.30;;;;;;4990472;28;20041;-60
2021/10/06 03:03:02;;;;;;;6.93;1.90;;;23.90;42.90;;;;;;4990564;28;20487;-65
2021/10/06 03:05:29;;;;;;;4.97;2.17;;;23.60;44.00;;;;;;4990501;28;20030;-61
2021/10/06 03:07:56;;;;;;;8.38;2.47;;;23.60;43.60;;;;;;4989725;28;20433;-66
2021/10/06 03:10:24;;;;;;;5.28;2.25;;;23.60;44.00;;;;;;4990288;28;20079;-62
2021/10/06 03:12:51;;;;;;;6.60;1.90;;;23.50;43.40;;;;;;4990189;28;20562;-57
2021/10/06 03:15:19;;;;;;;7.63;2.00;;;23.70;44.00;;;;;;4990544;28;20037;-63
2021/10/06 03:17:46;;;;;;;7.97;1.92;;;23.80;43.50;;;;;;4990123;28;20033;-56
2021/10/06 03:20:14;;;;;;;6.05;1.83;;;23.80;43.50;;;;;;4990431;28;20026;-58
2021/10/06 03:22:42;;;;;;;9.27;2.05;;;23.80;43.40;;;;;;4990651;28;20496;-62
2021/10/06 03:25:10;;;;;;;6.93;2.08;;;23.70;43.40;;;;;;4990785;28;20058;-60
2021/10/06 03:27:38;;;;;;;3.30;1.42;;;23.70;43.40;;;;;;4972783;28;20384;-62
2021/10/06 03:30:07;;;;;;;4.85;2.22;;;23.60;43.70;;;;;;4972735;28;20031;-62
2021/10/06 03:32:35;;;;;;;9.52;2.33;;;23.60;43.90;;;;;;4990350;28;20052;-63
2021/10/06 03:35:02;;;;;;;6.97;1.90;;;23.70;43.90;;;;;;4989866;28;20030;-63
2021/10/06 03:37:35;;;;;;;8.38;2.17;;;23.60;44.10;;;;;;4992377;28;20022;-64
2021/10/06 03:40:07;;;;;;;5.10;1.85;;;23.50;44.70;;;;;;5013121;28;20101;-60
2021/10/06 03:42:35;;;;;;;7.03;3.00;;;23.50;44.60;;;;;;5012274;28;20113;-66
2021/10/06 03:45:06;;;;;;;8.65;3.38;;;23.50;44.80;;;;;;5013803;28;20030;-59
2021/10/06 03:47:33;;;;;;;9.30;3.40;;;23.40;45.10;;;;;;5008801;28;20038;-59
2021/10/06 03:50:01;;;;;;;7.05;3.22;;;23.50;45.00;;;;;;4994824;28;20040;-62
2021/10/06 03:52:28;;;;;;;6.38;3.30;;;23.60;44.90;;;;;;5012577;28;20325;-65
2021/10/06 03:54:56;;;;;;;8.25;3.22;;;23.40;45.10;;;;;;5011243;28;20495;-64
2021/10/06 03:57:23;;;;;;;10.05;3.30;;;23.50;46.20;;;;;;5008731;28;20441;-63
2021/10/06 03:59:51;;;;;;;7.25;3.17;;;23.40;46.30;;;;;;5011856;28;20018;-65
2021/10/06 04:02:18;;;;;;;12.50;3.85;;;23.40;45.80;;;;;;5012666;28;20120;-58
2021/10/06 04:04:45;;;;;;;7.10;3.22;;;23.50;45.30;;;;;;5014242;28;20103;-61
2021/10/06 04:07:13;;;;;;;7.70;2.78;;;23.40;46.40;;;;;;5010181;28;20038;-58
2021/10/06 04:09:40;;;;;;;12.23;3.92;;;23.40;46.80;;;;;;5012613;28;20033;-61
2021/10/06 04:12:08;;;;;;;7.07;2.90;;;23.30;45.70;;;;;;5012582;28;20061;-62
2021/10/06 04:14:35;;;;;;;6.65;3.03;;;23.40;46.30;;;;;;5012298;28;20109;-54
2021/10/06 04:17:02;;;;;;;7.63;3.13;;;23.40;46.90;;;;;;4995078;28;20393;-60
2021/10/06 04:19:30;;;;;;;8.25;3.63;;;23.30;47.80;;;;;;5012001;28;20105;-64
2021/10/06 04:21:57;;;;;;;9.00;2.85;;;23.30;46.60;;;;;;5012298;28;20484;-57
2021/10/06 04:24:24;;;;;;;9.15;3.28;;;23.40;46.30;;;;;;5012472;28;20476;-57
2021/10/06 04:26:52;;;;;;;4.60;2.35;;;23.40;47.20;;;;;;5011896;28;20022;-57
2021/10/06 04:29:19;;;;;;;11.25;2.90;;;23.40;46.70;;;;;;5012402;28;20499;-60
2021/10/06 04:31:56;;;;;;;6.25;2.63;;;23.40;47.10;;;;;;5012187;28;20038;-54
2021/10/06 04:34:23;;;;;;;10.40;2.35;;;23.40;46.70;;;;;;4994653;28;20025;-66
2021/10/06 04:36:51;;;;;;;7.35;2.72;;;23.40;46.40;;;;;;5011819;28;20404;-61
2021/10/06 04:39:18;;;;;;;13.50;2.95;;;23.30;47.60;;;;;;5012453;28;20022;-63
2021/10/06 04:41:45;;;;;;;6.05;2.53;;;23.20;47.50;;;;;;5012388;28;20034;-58
2021/10/06 04:44:13;;;;;;;6.78;2.75;;;23.10;47.20;;;;;;5012727;28;20022;-60
2021/10/06 04:46:40;;;;;;;7.10;2.90;;;23.10;47.10;;;;;;4993244;28;20126;-62
2021/10/06 04:49:08;;;;;;;7.30;2.60;;;23.00;47.50;;;;;;5011719;28;20121;-57
2021/10/06 04:51:35;;;;;;;8.07;2.83;;;23.00;47.50;;;;;;5012052;28;20418;-60
2021/10/06 04:54:03;;;;;;;9.40;2.40;;;22.90;47.90;;;;;;5011666;28;20464;-62
2021/10/06 04:56:30;;;;;;;6.78;2.92;;;22.80;48.80;;;;;;5011213;28;20038;-57
2021/10/06 04:58:58;;;;;;;21.17;14.27;;;22.80;49.00;;;;;;5011833;28;20022;-54
2021/10/06 05:01:25;;;;;;;16.48;11.43;;;22.90;48.70;;;;;;5011945;28;20109;-57
2021/10/06 05:03:53;;;;;;;10.77;8.05;;;22.80;48.90;;;;;;5011649;28;20036;-56
2021/10/06 05:06:20;;;;;;;20.33;12.60;;;22.80;48.50;;;;;;5011854;28;20030;-56
2021/10/06 05:08:48;;;;;;;9.07;4.95;;;22.80;47.70;;;;;;5011175;28;20076;-54
2021/10/06 05:11:15;;;;;;;14.80;6.00;;;22.70;48.20;;;;;;4994300;28;20102;-62
2021/10/06 05:13:43;;;;;;;8.52;4.68;;;22.80;46.60;;;;;;5011885;28;20056;-62
2021/10/06 05:16:10;;;;;;;10.77;7.05;;;22.80;47.40;;;;;;5011689;28;20026;-58
2021/10/06 05:18:37;;;;;;;10.40;4.68;;;22.60;47.40;;;;;;5011256;28;20399;-59
2021/10/06 05:21:05;;;;;;;12.20;5.72;;;22.70;48.10;;;;;;5011272;28;20026;-63
2021/10/06 05:23:32;;;;;;;11.32;4.15;;;22.70;49.00;;;;;;5011984;28;20059;-60
2021/10/06 05:26:00;;;;;;;12.30;7.15;;;22.60;47.60;;;;;;5011663;28;20043;-63
2021/10/06 05:28:27;;;;;;;12.65;4.65;;;22.70;47.70;;;;;;5011829;28;20034;-58
2021/10/06 05:30:55;;;;;;;9.70;3.97;;;22.60;46.60;;;;;;5011457;28;20028;-62
2021/10/06 05:33:24;;;;;;;8.63;4.10;;;22.70;45.60;;;;;;5011772;28;20026;-60
2021/10/06 05:35:51;;;;;;;9.50;4.30;;;22.70;47.00;;;;;;5011425;28;20029;-59
2021/10/06 05:38:18;;;;;;;9.65;3.50;;;22.70;46.10;;;;;;5011934;28;20033;-57
2021/10/06 05:40:46;;;;;;;7.32;3.83;;;22.60;46.00;;;;;;5011414;28;20121;-60
2021/10/06 05:43:14;;;;;;;6.78;3.30;;;22.60;46.50;;;;;;5011764;28;20106;-63
2021/10/06 05:45:41;;;;;;;5.55;2.80;;;22.60;46.40;;;;;;4994461;28;20033;-64
2021/10/06 05:48:09;;;;;;;8.32;3.00;;;22.60;46.30;;;;;;5001376;28;20460;-59
2021/10/06 05:50:36;;;;;;;5.93;3.15;;;22.50;48.90;;;;;;5007247;28;20018;-57
2021/10/06 05:53:07;;;;;;;5.53;2.28;;;22.50;46.80;;;;;;5004800;28;20056;-60
2021/10/06 05:55:34;;;;;;;6.10;2.83;;;22.60;44.00;;;;;;5005480;28;20061;-60
2021/10/06 05:58:02;;;;;;;10.48;2.15;;;22.60;39.80;;;;;;5008707;28;20056;-58
2021/10/06 06:00:30;;;;;;;8.27;2.63;;;22.40;43.00;;;;;;5004555;28;20022;-56
2021/10/06 06:03:10;;;;;;;9.93;2.10;;;22.40;43.40;;;;;;5009738;28;20104;-62
2021/10/06 06:05:40;;;;;;;3.65;2.20;;;22.30;44.80;;;;;;5009774;28;20026;-62
2021/10/06 06:08:09;;;;;;;10.10;2.38;;;22.30;44.90;;;;;;5008814;28;20499;-62
2021/10/06 06:10:40;;;;;;;5.25;2.03;;;22.30;44.90;;;;;;5005542;28;20026;-65
2021/10/06 06:13:25;;;;;;;5.15;2.33;;;22.40;45.70;;;;;;5009827;28;20030;-60
2021/10/06 06:15:53;;;;;;;5.90;2.22;;;22.30;46.00;;;;;;5009759;28;20095;-60
2021/10/06 06:18:36;;;;;;;5.63;2.50;;;22.40;45.60;;;;;;5006439;28;20056;-60
2021/10/06 06:21:04;;;;;;;6.22;2.17;;;22.40;44.70;;;;;;4988205;28;20076;-61
2021/10/06 06:23:32;;;;;;;7.50;2.10;;;22.30;43.80;;;;;;5009642;28;20029;-63
2021/10/06 06:26:03;;;;;;;4.57;1.92;;;22.30;45.80;;;;;;5009751;28;20438;-62
2021/10/06 06:28:40;;;;;;;7.32;2.47;;;22.30;45.50;;;;;;4987880;28;20124;-61
2021/10/06 06:31:10;;;;;;;4.75;1.30;;;22.30;45.10;;;;;;5005496;28;20098;-48
2021/10/06 06:33:38;;;;;;;5.63;2.38;;;22.20;39.50;;;;;;5008975;28;20113;-65
2021/10/06 06:36:05;;;;;;;5.07;2.17;;;22.00;44.80;;;;;;5009972;28;20033;-62
2021/10/06 06:38:32;;;;;;;8.10;2.28;;;22.10;45.90;;;;;;5004528;28;20550;-72
2021/10/06 06:41:00;;;;;;;5.18;2.08;;;22.10;46.40;;;;;;5010032;28;20075;-66
2021/10/06 06:43:27;;;;;;;6.40;2.33;;;22.20;47.40;;;;;;5009255;28;21506;-66
2021/10/06 06:45:55;;;;;;;9.68;2.28;;;22.10;47.60;;;;;;5009565;28;20071;-64
2021/10/06 06:48:22;;;;;;;5.40;1.80;;;22.10;47.70;;;;;;5005300;28;20038;-63
2021/10/06 06:50:54;;;;;;;11.35;2.40;;;22.10;48.00;;;;;;5007647;28;20289;-67
2021/10/06 06:53:28;;;;;;;6.22;2.35;;;22.10;47.80;;;;;;5009377;28;20057;-72
2021/10/06 06:55:58;;;;;;;5.68;2.10;;;22.10;48.20;;;;;;5009688;28;20376;-64
2021/10/06 06:58:26;;;;;;;7.75;1.65;;;22.10;48.50;;;;;;5004738;28;20061;-60
2021/10/06 07:00:54;;;;;;;6.22;2.03;;;22.10;48.40;;;;;;5008691;28;20014;-65
2021/10/06 07:03:21;;;;;;;5.53;1.83;;;22.10;47.90;;;;;;5008967;28;20499;-59
2021/10/06 07:05:49;;;;;;;7.32;2.20;;;22.10;48.50;;;;;;5008254;28;20109;-64
2021/10/06 07:08:16;;;;;;;4.60;1.85;;;22.10;48.80;;;;;;5005144;28;20030;-61
2021/10/06 07:10:44;;;;;;;5.32;1.92;;;22.10;48.40;;;;;;5006302;28;20022;-63
2021/10/06 07:13:11;;;;;;;6.05;2.10;;;22.00;48.80;;;;;;5008449;28;20034;-63
2021/10/06 07:15:39;;;;;;;4.45;1.83;;;22.00;48.70;;;;;;5008334;28;20485;-62
2021/10/06 07:18:06;;;;;;;3.63;1.60;;;21.90;48.80;;;;;;4990248;28;20072;-61
2021/10/06 07:20:33;;;;;;;4.22;1.70;;;21.90;48.70;;;;;;4989535;28;20084;-63
2021/10/06 07:23:01;;;;;;;5.25;1.58;;;21.90;49.20;;;;;;4990111;28;20476;-62
2021/10/06 07:25:28;;;;;;;4.97;1.90;;;21.80;49.40;;;;;;4989738;28;20041;-64
2021/10/06 07:27:55;;;;;;;6.57;1.75;;;21.80;49.70;;;;;;4989760;28;20081;-65
2021/10/06 07:30:23;;;;;;;4.22;1.50;;;21.70;49.40;;;;;;4989885;28;20027;-64
2021/10/06 07:32:50;;;;;;;5.65;1.83;;;21.60;50.30;;;;;;4989894;28;20118;-60
2021/10/06 07:35:19;;;;;;;8.80;2.13;;;21.60;50.00;;;;;;4989702;28;20489;-64
2021/10/06 07:37:47;;;;;;;9.25;1.90;;;21.50;50.30;;;;;;4990230;28;20077;-65
2021/10/06 07:40:14;;;;;;;4.53;1.70;;;21.50;50.70;;;;;;4989942;28;20088;-65
2021/10/06 07:42:42;;;;;;;5.15;1.92;;;21.50;51.10;;;;;;4989559;28;20026;-61
2021/10/06 07:45:10;;;;;;;6.88;1.90;;;21.40;51.00;;;;;;4989478;28;20033;-65
2021/10/06 07:47:37;;;;;;;6.93;2.05;;;21.40;51.30;;;;;;4989796;28;20474;-63
2021/10/06 07:50:05;;;;;;;4.68;2.05;;;21.40;51.60;;;;;;4972484;28;20038;-64
2021/10/06 07:52:36;;;;;;;10.57;2.17;;;21.40;51.80;;;;;;4989440;28;20329;-67
2021/10/06 07:55:05;;;;;;;8.45;2.20;;;21.30;54.70;;;;;;4988178;28;20037;-65
2021/10/06 07:57:32;;;;;;;6.25;2.03;;;21.40;54.50;;;;;;5005954;28;20110;-68
2021/10/06 08:00:00;;;;;;;6.75;1.80;;;21.30;55.00;;;;;;5008455;28;20026;-65
2021/10/06 08:02:27;;;;;;;5.97;1.65;;;21.30;55.10;;;;;;4991142;28;20175;-58
2021/10/06 08:04:55;;;;;;;9.25;2.53;;;21.30;55.10;;;;;;5007319;28;20077;-58
2021/10/06 08:07:22;;;;;;;4.22;1.90;;;21.30;55.40;;;;;;5003267;28;20022;-63
2021/10/06 08:09:53;;;;;;;6.70;1.92;;;21.30;55.50;;;;;;5008398;28;20033;-57
2021/10/06 08:12:20;;;;;;;3.72;1.58;;;21.30;56.00;;;;;;4990327;28;20026;-64
2021/10/06 08:14:48;;;;;;;5.40;1.88;;;21.30;55.40;;;;;;5007413;28;20061;-60
2021/10/06 08:17:15;;;;;;;7.40;1.98;;;21.30;55.20;;;;;;5003592;28;20033;-64
2021/10/06 08:19:43;;;;;;;5.75;1.90;;;21.30;55.20;;;;;;5008627;28;20022;-61
2021/10/06 08:22:10;;;;;;;4.53;1.90;;;21.20;55.10;;;;;;5011838;28;20082;-62
2021/10/06 08:24:38;;;;;;;6.80;1.85;;;21.10;55.30;;;;;;4989080;28;20041;-64
2021/10/06 08:27:08;;;;;;;6.22;1.75;;;21.20;55.70;;;;;;5005969;28;20048;-63
2021/10/06 08:29:35;;;;;;;6.38;1.85;;;21.10;55.70;;;;;;5011870;28;20041;-64
2021/10/06 08:32:03;;;;;;;6.30;1.65;;;21.10;55.70;;;;;;4993820;28;20041;-60
2021/10/06 08:34:31;;;;;;;5.97;2.25;;;21.10;55.80;;;;;;5007889;28;20033;-64
2021/10/06 08:36:58;;;;;;;4.53;1.85;;;21.10;55.90;;;;;;4990282;28;21268;-65
2021/10/06 08:39:26;;;;;;;4.93;2.15;;;21.10;56.00;;;;;;5014143;28;20480;-63
2021/10/06 08:41:53;;;;;;;6.15;1.75;;;21.10;56.10;;;;;;5013076;28;20030;-63
2021/10/06 08:44:25;;;;;;;7.28;2.05;;;21.10;56.00;;;;;;5009575;28;20499;-65
2021/10/06 08:46:54;;;;;;;6.95;1.95;;;21.10;56.10;;;;;;5007599;28;20030;-64
2021/10/06 08:49:22;;;;;;;3.83;1.33;;;21.00;56.20;;;;;;5009404;28;20040;-63
2021/10/06 08:51:49;;;;;;;7.85;2.22;;;21.10;56.20;;;;;;4991546;28;20493;-67
2021/10/06 08:54:23;;;;;;;6.68;1.98;;;21.10;56.20;;;;;;5011523;28;20564;-61
2021/10/06 08:56:51;;;;;;;3.63;1.33;;;21.00;56.10;;;;;;5002540;28;20125;-60
2021/10/06 08:59:19;;;;;;;10.82;1.90;;;21.00;56.00;;;;;;5008047;28;20097;-63
2021/10/06 09:01:47;;;;;;;3.85;1.63;;;21.00;56.10;;;;;;5011154;28;20063;-57
2021/10/06 09:04:14;;;;;;;5.47;1.80;;;21.00;56.10;;;;;;5008381;28;20025;-56
2021/10/06 09:06:45;;;;;;;3.80;1.40;;;21.00;56.20;;;;;;5005359;28;20026;-66
2021/10/06 09:09:26;;;;;;;8.02;2.05;;;20.90;56.30;;;;;;5008080;28;20122;-64
2021/10/06 09:11:56;;;;;;;4.40;1.67;;;21.00;56.40;;;;;;4990538;28;20541;-63
2021/10/06 09:14:24;;;;;;;4.57;1.55;;;20.90;56.30;;;;;;5008443;28;20475;-60
2021/10/06 09:17:23;;;;;;;4.70;1.73;;;20.90;56.40;;;;;;5006131;28;20025;-66
2021/10/06 09:19:53;;;;;;;5.25;1.73;;;20.90;56.50;;;;;;4957408;28;20034;-68
2021/10/06 09:22:27;;;;;;;6.50;2.03;;;20.90;56.50;;;;;;5006843;28;20025;-65
2021/10/06 09:25:08;;;;;;;5.80;2.08;;;20.90;56.40;;;;;;5007619;28;20018;-64
2021/10/06 09:27:39;;;;;;;4.97;1.67;;;20.90;56.40;;;;;;5002294;28;20026;-64
2021/10/06 09:30:11;;;;;;;5.43;2.40;;;20.90;56.50;;;;;;5010949;28;20053;-64
2021/10/06 09:32:43;;;;;;;4.25;1.73;;;20.90;56.50;;;;;;5010269;28;20422;-63
2021/10/06 09:35:19;;;;;;;3.67;1.65;;;20.90;56.50;;;;;;4992892;28;20065;-63
2021/10/06 09:37:52;;;;;;;4.28;1.92;;;20.80;56.50;;;;;;5004596;28;20484;-71
2021/10/06 09:40:23;;;;;;;4.45;1.77;;;20.80;56.60;;;;;;5010977;28;20022;-64
2021/10/06 09:42:53;;;;;;;4.90;1.60;;;20.80;56.60;;;;;;5010259;28;20512;-63
2021/10/06 09:45:30;;;;;;;5.65;1.88;;;20.80;56.70;;;;;;5010513;28;20034;-63
2021/10/06 09:48:13;;;;;;;4.47;1.45;;;20.80;56.70;;;;;;5003582;28;20030;-62
2021/10/06 09:50:54;;;;;;;5.85;1.85;;;20.80;56.80;;;;;;5006972;28;20065;-63
2021/10/06 09:53:23;;;;;;;6.60;1.98;;;20.80;56.90;;;;;;5007641;28;20096;-64
2021/10/06 09:55:52;;;;;;;5.35;1.75;;;20.80;56.80;;;;;;5008760;28;20018;-64
2021/10/06 09:58:21;;;;;;;5.97;1.73;;;20.80;56.60;;;;;;5004585;28;20465;-65
2021/10/06 10:00:50;;;;;;;5.07;1.58;;;20.70;56.70;;;;;;5009933;28;20528;-60
2021/10/06 10:03:18;;;;;;;2.85;1.55;;;20.70;56.90;;;;;;5010013;28;20041;-61
2021/10/06 10:05:46;;;;;;;7.18;1.75;;;20.70;56.70;;;;;;5005734;28;20025;-66
2021/10/06 10:08:13;;;;;;;6.43;2.15;;;20.70;57.00;;;;;;5004441;28;20507;-62
2021/10/06 10:10:41;;;;;;;6.78;1.90;;;20.60;57.10;;;;;;5009780;28;20036;-63
2021/10/06 10:13:08;;;;;;;7.70;2.00;;;20.60;57.20;;;;;;5009533;28;20495;-65
2021/10/06 10:15:36;;;;;;;3.30;1.50;;;20.60;57.30;;;;;;5009964;28;20504;-61
2021/10/06 10:18:06;;;;;;;4.97;2.15;;;20.60;57.40;;;;;;5003430;28;20022;-61
2021/10/06 10:20:38;;;;;;;4.50;1.48;;;20.60;57.60;;;;;;5009804;28;20488;-61
2021/10/06 10:23:06;;;;;;;4.55;1.75;;;20.50;57.50;;;;;;5009775;28;20029;-63
2021/10/06 10:25:41;;;;;;;7.15;2.53;;;20.50;57.50;;;;;;5009529;28;20026;-59
2021/10/06 10:28:28;;;;;;;3.63;1.55;;;20.50;57.60;;;;;;5003784;28;20033;-65
2021/10/06 10:30:55;;;;;;;5.88;2.22;;;20.50;57.70;;;;;;5006007;28;20037;-63
2021/10/06 10:33:45;;;;;;;10.25;1.80;;;20.50;57.90;;;;;;5009592;28;20034;-62
2021/10/06 10:36:34;;;;;;;3.65;1.70;;;20.40;57.90;;;;;;5006961;28;20427;-65
2021/10/06 10:39:03;;;;;;;4.93;1.83;;;20.40;57.80;;;;;;5003450;28;20053;-67
2021/10/06 10:41:44;;;;;;;3.50;1.80;;;20.40;58.10;;;;;;5009589;28;20324;-67
2021/10/06 10:44:22;;;;;;;3.60;1.77;;;20.40;57.90;;;;;;5008614;28;20029;-62
2021/10/06 10:47:01;;;;;;;5.97;2.22;;;20.40;58.10;;;;;;5005324;28;20468;-60
2021/10/06 10:49:46;;;;;;;5.68;1.50;;;20.40;58.20;;;;;;5008686;28;20033;-63
2021/10/06 10:52:16;;;;;;;3.70;1.40;;;20.30;58.00;;;;;;5007105;28;20021;-63
2021/10/06 10:54:47;;;;;;;3.53;1.63;;;20.30;57.90;;;;;;5009039;28;20099;-61
2021/10/06 10:57:18;;;;;;;5.05;1.60;;;20.30;58.00;;;;;;5005368;28;20054;-62
2021/10/06 10:59:47;;;;;;;5.87;2.37;;;20.20;57.80;;;;;;5093683;28;20459;-63
2021/10/06 11:02:35;;;;;;;7.10;1.55;;;20.20;58.00;;;;;;5010362;28;20555;-58
2021/10/06 11:05:06;;;;;;;4.85;1.70;;;20.20;57.90;;;;;;5010160;28;20029;-60
2021/10/06 11:07:34;;;;;;;2.85;1.52;;;20.20;58.20;;;;;;5010181;28;20026;-65
2021/10/06 11:10:15;;;;;;;3.80;2.00;;;20.20;58.20;;;;;;5010204;28;20529;-63
2021/10/06 11:12:53;;;;;;;4.72;1.50;;;20.20;58.40;;;;;;5009779;28;20384;-62
2021/10/06 11:15:22;;;;;;;5.32;1.65;;;20.20;58.50;;;;;;5009852;28;20110;-64
2021/10/06 11:18:16;;;;;;;5.47;1.70;;;20.10;58.60;;;;;;5009575;28;20344;-63
2021/10/06 11:20:58;;;;;;;7.18;1.60;;;20.10;58.70;;;;;;5009863;28;20026;-63
2021/10/06 11:23:31;;;;;;;8.60;1.60;;;20.10;58.80;;;;;;5009014;28;20083;-63
2021/10/06 11:26:05;;;;;;;4.18;1.60;;;20.10;59.00;;;;;;5009727;28;20026;-66
2021/10/06 11:28:36;;;;;;;7.82;2.15;;;20.10;58.90;;;;;;5010003;28;20120;-63
2021/10/06 11:31:04;;;;;;;5.20;1.77;;;20.10;59.00;;;;;;5009786;28;20026;-65
2021/10/06 11:33:32;;;;;;;5.20;1.88;;;20.10;59.10;;;;;;5010249;28;20075;-65
2021/10/06 11:36:21;;;;;;;6.25;1.73;;;20.10;59.10;;;;;;5009706;28;20090;-64
2021/10/06 11:39:10;;;;;;;18.38;1.70;;;20.00;59.10;;;;;;4992246;28;20022;-66
2021/10/06 11:41:43;;;;;;;4.93;1.60;;;20.00;59.10;;;;;;5008706;28;20038;-60
2021/10/06 11:44:14;;;;;;;3.92;1.45;;;20.00;60.00;;;;;;5008061;28;20086;-66
2021/10/06 11:46:43;;;;;;;5.53;1.77;;;20.00;59.80;;;;;;5009840;28;20026;-65
2021/10/06 11:49:11;;;;;;;5.38;1.63;;;20.00;59.70;;;;;;5009518;28;20099;-55
2021/10/06 11:51:41;;;;;;;7.53;1.70;;;20.00;59.80;;;;;;5009545;28;20018;-65
2021/10/06 11:54:09;;;;;;;5.13;1.80;;;20.00;60.10;;;;;;5009079;28;20037;-64
2021/10/06 11:56:38;;;;;;;4.88;1.92;;;19.90;60.10;;;;;;5012732;28;20078;-62
2021/10/06 11:59:14;;;;;;;5.03;1.77;;;19.90;60.10;;;;;;5013136;28;20033;-61
2021/10/06 12:02:02;;;;;;;4.40;1.67;;;19.90;60.30;;;;;;5012981;28;20026;-63
2021/10/06 12:04:35;;;;;;;5.22;2.33;;;19.90;60.30;;;;;;5012474;28;20065;-66
2021/10/06 12:07:05;;;;;;;4.50;1.58;;;19.90;60.30;;;;;;5012933;28;20139;-64
2021/10/06 12:09:57;;;;;;;5.15;2.17;;;19.90;60.50;;;;;;5013010;28;20030;-62
2021/10/06 12:12:39;;;;;;;6.57;2.13;;;19.90;60.40;;;;;;5002279;28;20083;-64
2021/10/06 12:15:16;;;;;;;4.15;1.42;;;19.90;60.30;;;;;;5012438;28;20165;-64
2021/10/06 12:17:45;;;;;;;4.30;1.80;;;19.90;60.20;;;;;;5010812;28;20292;-65
2021/10/06 12:20:20;;;;;;;5.60;1.70;;;19.90;60.10;;;;;;5014838;28;20384;-68
2021/10/06 12:22:57;;;;;;;5.47;1.70;;;19.80;60.20;;;;;;4987526;28;20038;-65
2021/10/06 12:25:27;;;;;;;6.05;2.08;;;19.80;60.10;;;;;;5011522;28;20427;-69
2021/10/06 12:28:00;;;;;;;5.28;1.83;;;19.80;60.10;;;;;;5013519;28;20029;-67
2021/10/06 12:30:31;;;;;;;4.07;1.38;;;19.80;60.10;;;;;;5013711;28;20022;-64
2021/10/06 12:33:04;;;;;;;3.92;1.50;;;19.80;60.00;;;;;;5012780;28;20041;-60
2021/10/06 12:35:57;;;;;;;3.13;1.48;;;19.80;60.00;;;;;;5012732;28;20387;-60
2021/10/06 12:38:57;;;;;;;3.63;1.50;;;19.80;59.90;;;;;;5012354;28;20113;-63
2021/10/06 12:41:25;;;;;;;6.00;1.98;;;19.80;60.00;;;;;;4995899;28;20424;-61
2021/10/06 12:43:52;;;;;;;8.40;1.77;;;19.80;60.60;;;;;;5012169;28;20030;-63
2021/10/06 12:46:26;;;;;;;4.63;1.70;;;19.70;60.00;;;;;;5004822;28;20026;-61
2021/10/06 12:48:58;;;;;;;6.30;1.63;;;19.70;60.00;;;;;;5009430;28;20079;-60
2021/10/06 12:51:57;;;;;;;;;;;;;;;;;;;;;
2021/10/06 12:54:34;;;;;;;4.38;1.48;;;19.70;60.00;;;;;;4998165;28;20145;-57
2021/10/06 12:57:04;;;;;;;3.92;1.88;;;19.60;59.90;;;;;;5010114;28;20061;-61
2021/10/06 12:59:42;;;;;;;6.15;2.25;;;19.60;59.90;;;;;;5011005;28;20037;-62
2021/10/06 13:02:12;;;;;;;4.65;1.60;;;19.60;59.70;;;;;;5010977;28;20154;-62
2021/10/06 13:04:41;;;;;;;6.00;1.63;;;19.60;59.90;;;;;;5006709;28;20420;-64